CRA017 MPTO-SKBQ
Flight info
| Callsign | CRA017 |
|---|---|
| Flight time | 0h 50m |
| Altitude | 30000 |
| Route | RNP03R TIRLA PONPO UL335 CTG CTG1A |
| Aircraft | PMDG/M-V/N |
Departure
| Time | 2026-04-29 01:23 |
|---|---|
| Airport | Tocumen International Airport (MPTO) |
Arrival
| Time | 2026-04-29 02:13 |
|---|---|
| Airport | Ernesto Cortissoz International Airport (SKBQ) |
| Time | Latitude | Longitude | Altitude | Speed | Heading |
|---|---|---|---|---|---|
| 2026-04-29 01:07 | 9.06671 | -79.38575 | 143 ft | 0 kts | 299° |
| 2026-04-29 01:10 | 9.06670 | -79.38572 | 143 ft | 2 kts | 299° |
| 2026-04-29 01:10 | 9.06661 | -79.38556 | 143 ft | 3 kts | 297° |
| 2026-04-29 01:10 | 9.06651 | -79.38538 | 143 ft | 3 kts | 296° |
| 2026-04-29 01:10 | 9.06642 | -79.38519 | 143 ft | 3 kts | 295° |
| 2026-04-29 01:11 | 9.06634 | -79.38501 | 143 ft | 3 kts | 294° |
| 2026-04-29 01:11 | 9.06626 | -79.38482 | 143 ft | 3 kts | 292° |
| 2026-04-29 01:11 | 9.06618 | -79.38463 | 143 ft | 3 kts | 289° |
| 2026-04-29 01:11 | 9.06612 | -79.38443 | 143 ft | 3 kts | 283° |
| 2026-04-29 01:12 | 9.06609 | -79.38424 | 143 ft | 3 kts | 263° |
| 2026-04-29 01:12 | 9.06613 | -79.38410 | 143 ft | 1 kts | 214° |
| 2026-04-29 01:12 | 9.06615 | -79.38409 | 143 ft | 0 kts | 209° |
| 2026-04-29 01:14 | 9.06614 | -79.38409 | 143 ft | 0 kts | 209° |
| 2026-04-29 01:15 | 9.06604 | -79.38415 | 143 ft | 3 kts | 209° |
| 2026-04-29 01:15 | 9.06579 | -79.38429 | 143 ft | 5 kts | 209° |
| 2026-04-29 01:16 | 9.06541 | -79.38451 | 143 ft | 8 kts | 209° |
| 2026-04-29 01:16 | 9.06488 | -79.38480 | 143 ft | 10 kts | 208° |
| 2026-04-29 01:16 | 9.06419 | -79.38518 | 143 ft | 12 kts | 208° |
| 2026-04-29 01:16 | 9.06338 | -79.38562 | 143 ft | 14 kts | 207° |
| 2026-04-29 01:17 | 9.06238 | -79.38564 | 143 ft | 15 kts | 174° |
| 2026-04-29 01:17 | 9.06138 | -79.38604 | 143 ft | 17 kts | 211° |
| 2026-04-29 01:17 | 9.06032 | -79.38666 | 143 ft | 19 kts | 210° |
| 2026-04-29 01:17 | 9.05913 | -79.38736 | 143 ft | 21 kts | 210° |
| 2026-04-29 01:18 | 9.05793 | -79.38805 | 143 ft | 19 kts | 210° |
| 2026-04-29 01:18 | 9.05571 | -79.38936 | 143 ft | 18 kts | 210° |
| 2026-04-29 01:18 | 9.05467 | -79.38996 | 143 ft | 17 kts | 209° |
| 2026-04-29 01:19 | 9.05369 | -79.39051 | 143 ft | 16 kts | 209° |
| 2026-04-29 01:19 | 9.05277 | -79.39103 | 143 ft | 15 kts | 209° |
| 2026-04-29 01:19 | 9.05191 | -79.39153 | 143 ft | 14 kts | 210° |
| 2026-04-29 01:19 | 9.05110 | -79.39200 | 143 ft | 13 kts | 210° |
| 2026-04-29 01:20 | 9.05035 | -79.39243 | 143 ft | 12 kts | 210° |
| 2026-04-29 01:20 | 9.04994 | -79.39267 | 143 ft | 11 kts | 210° |
| 2026-04-29 01:20 | 9.04967 | -79.39283 | 143 ft | 10 kts | 210° |
| 2026-04-29 01:20 | 9.04908 | -79.39316 | 143 ft | 9 kts | 210° |
| 2026-04-29 01:21 | 9.04852 | -79.39343 | 143 ft | 9 kts | 189° |
| 2026-04-29 01:21 | 9.04803 | -79.39317 | 143 ft | 7 kts | 128° |
| 2026-04-29 01:21 | 9.04784 | -79.39276 | 143 ft | 6 kts | 104° |
| 2026-04-29 01:21 | 9.04797 | -79.39242 | 143 ft | 6 kts | 38° |
| 2026-04-29 01:22 | 9.04813 | -79.39233 | 143 ft | 0 kts | 30° |
| 2026-04-29 01:22 | 9.04839 | -79.39218 | 143 ft | 30 kts | 30° |
| 2026-04-29 01:23 | 9.05361 | -79.38911 | 143 ft | 139 kts | 30° |
| 2026-04-29 01:23 | 9.06413 | -79.38294 | 539 ft | 193 kts | 30° |
| 2026-04-29 01:23 | 9.07565 | -79.37606 | 1969 ft | 188 kts | 32° |
| 2026-04-29 01:23 | 9.08385 | -79.36673 | 3243 ft | 178 kts | 62° |
| 2026-04-29 01:24 | 9.08715 | -79.35413 | 3905 ft | 198 kts | 81° |
| 2026-04-29 01:24 | 9.08948 | -79.33925 | 4312 ft | 231 kts | 79° |
| 2026-04-29 01:24 | 9.09222 | -79.32228 | 4879 ft | 251 kts | 79° |
| 2026-04-29 01:24 | 9.09507 | -79.30455 | 5734 ft | 259 kts | 79° |
| 2026-04-29 01:25 | 9.09801 | -79.28624 | 6511 ft | 270 kts | 79° |
| 2026-04-29 01:25 | 9.10109 | -79.26703 | 7281 ft | 284 kts | 80° |
| 2026-04-29 01:25 | 9.10431 | -79.24688 | 8091 ft | 297 kts | 80° |
| 2026-04-29 01:25 | 9.10762 | -79.22613 | 9112 ft | 303 kts | 80° |
| 2026-04-29 01:26 | 9.11105 | -79.20464 | 10139 ft | 308 kts | 80° |
| 2026-04-29 01:26 | 9.11451 | -79.18292 | 11053 ft | 318 kts | 80° |
| 2026-04-29 01:26 | 9.11814 | -79.16013 | 11602 ft | 341 kts | 80° |
| 2026-04-29 01:26 | 9.12197 | -79.13603 | 12233 ft | 357 kts | 80° |
| 2026-04-29 01:27 | 9.12595 | -79.11101 | 13133 ft | 365 kts | 80° |
| 2026-04-29 01:27 | 9.13008 | -79.08505 | 14110 ft | 370 kts | 80° |
| 2026-04-29 01:27 | 9.13412 | -79.05959 | 15041 ft | 376 kts | 80° |
| 2026-04-29 01:27 | 9.13831 | -79.03319 | 15974 ft | 381 kts | 80° |
| 2026-04-29 01:28 | 9.14260 | -79.00625 | 16890 ft | 386 kts | 80° |
| 2026-04-29 01:28 | 9.14694 | -78.97925 | 17775 ft | 392 kts | 80° |
| 2026-04-29 01:28 | 9.15133 | -78.95185 | 18640 ft | 397 kts | 80° |
| 2026-04-29 01:28 | 9.15572 | -78.92437 | 19473 ft | 402 kts | 80° |
| 2026-04-29 01:29 | 9.16018 | -78.89636 | 20288 ft | 407 kts | 80° |
| 2026-04-29 01:29 | 9.16476 | -78.86754 | 21096 ft | 412 kts | 80° |
| 2026-04-29 01:29 | 9.16928 | -78.83911 | 21853 ft | 416 kts | 80° |
| 2026-04-29 01:29 | 9.17396 | -78.80961 | 22598 ft | 421 kts | 80° |
| 2026-04-29 01:30 | 9.17856 | -78.78061 | 23295 ft | 425 kts | 80° |
| 2026-04-29 01:30 | 9.18328 | -78.75083 | 23978 ft | 430 kts | 80° |
| 2026-04-29 01:30 | 9.18801 | -78.72094 | 24632 ft | 434 kts | 80° |
| 2026-04-29 01:30 | 9.19281 | -78.69060 | 25262 ft | 438 kts | 80° |
| 2026-04-29 01:31 | 9.19764 | -78.66005 | 25870 ft | 442 kts | 80° |
| 2026-04-29 01:31 | 9.20251 | -78.62925 | 26453 ft | 446 kts | 80° |
| 2026-04-29 01:31 | 9.20635 | -78.60496 | 26905 ft | 448 kts | 80° |
| 2026-04-29 01:32 | 9.21007 | -78.58137 | 27426 ft | 448 kts | 80° |
| 2026-04-29 01:32 | 9.21499 | -78.55024 | 28202 ft | 445 kts | 80° |
| 2026-04-29 01:32 | 9.21994 | -78.51894 | 28917 ft | 444 kts | 80° |
| 2026-04-29 01:32 | 9.22362 | -78.49586 | 29418 ft | 443 kts | 80° |
| 2026-04-29 01:33 | 9.22454 | -78.49003 | 29533 ft | 444 kts | 80° |
| 2026-04-29 01:33 | 9.22947 | -78.45884 | 29720 ft | 449 kts | 80° |
| 2026-04-29 01:33 | 9.23433 | -78.42800 | 29848 ft | 448 kts | 80° |
| 2026-04-29 01:33 | 9.23922 | -78.39684 | 29955 ft | 447 kts | 80° |
| 2026-04-29 01:34 | 9.24892 | -78.33495 | 29996 ft | 444 kts | 80° |
| 2026-04-29 01:34 | 9.25382 | -78.30371 | 30003 ft | 455 kts | 80° |
| 2026-04-29 01:34 | 9.25887 | -78.27147 | 30004 ft | 466 kts | 80° |
| 2026-04-29 01:35 | 9.26683 | -78.22278 | 30004 ft | 480 kts | 78° |
| 2026-04-29 01:35 | 9.28562 | -78.15742 | 30004 ft | 494 kts | 69° |
| 2026-04-29 01:36 | 9.31081 | -78.09214 | 30003 ft | 497 kts | 67° |
| 2026-04-29 01:36 | 9.33590 | -78.02707 | 30003 ft | 496 kts | 68° |
| 2026-04-29 01:37 | 9.36071 | -77.96216 | 30003 ft | 496 kts | 68° |
| 2026-04-29 01:37 | 9.38555 | -77.89698 | 30003 ft | 496 kts | 68° |
| 2026-04-29 01:38 | 9.40632 | -77.84265 | 30003 ft | 496 kts | 68° |
| 2026-04-29 01:38 | 9.43539 | -77.76646 | 30003 ft | 496 kts | 68° |
| 2026-04-29 01:39 | 9.45606 | -77.71226 | 30003 ft | 496 kts | 68° |
| 2026-04-29 01:39 | 9.48096 | -77.64695 | 30003 ft | 496 kts | 68° |
| 2026-04-29 01:40 | 9.50581 | -77.58151 | 30003 ft | 496 kts | 68° |
| 2026-04-29 01:40 | 9.53060 | -77.51618 | 30003 ft | 496 kts | 68° |
| 2026-04-29 01:41 | 9.55538 | -77.45084 | 30003 ft | 496 kts | 68° |
| 2026-04-29 01:41 | 9.57972 | -77.38533 | 30003 ft | 497 kts | 70° |
| 2026-04-29 01:42 | 9.60178 | -77.31896 | 30003 ft | 497 kts | 70° |
| 2026-04-29 01:42 | 9.62380 | -77.25293 | 30003 ft | 497 kts | 70° |
| 2026-04-29 01:43 | 9.64601 | -77.18678 | 30003 ft | 497 kts | 70° |
| 2026-04-29 01:43 | 9.66837 | -77.12030 | 30003 ft | 497 kts | 70° |
| 2026-04-29 01:44 | 9.69075 | -77.05404 | 30003 ft | 497 kts | 70° |
| 2026-04-29 01:44 | 9.71322 | -76.98756 | 30003 ft | 497 kts | 70° |
| 2026-04-29 01:45 | 9.73556 | -76.92130 | 30003 ft | 497 kts | 70° |
| 2026-04-29 01:45 | 9.75789 | -76.85498 | 30003 ft | 497 kts | 70° |
| 2026-04-29 01:46 | 9.78005 | -76.78909 | 30003 ft | 497 kts | 70° |
| 2026-04-29 01:46 | 9.80233 | -76.72281 | 30003 ft | 497 kts | 70° |
| 2026-04-29 01:47 | 9.82463 | -76.65640 | 30003 ft | 497 kts | 70° |
| 2026-04-29 01:47 | 9.84683 | -76.59025 | 30003 ft | 497 kts | 70° |
| 2026-04-29 01:48 | 9.86908 | -76.52390 | 30003 ft | 497 kts | 70° |
| 2026-04-29 01:48 | 9.89137 | -76.45739 | 30003 ft | 497 kts | 70° |
| 2026-04-29 01:49 | 9.91344 | -76.39147 | 30003 ft | 497 kts | 70° |
| 2026-04-29 01:49 | 9.93567 | -76.32505 | 30003 ft | 497 kts | 70° |
| 2026-04-29 01:50 | 9.95774 | -76.25902 | 30001 ft | 483 kts | 70° |
| 2026-04-29 01:50 | 9.96827 | -76.22752 | 29999 ft | 462 kts | 70° |
| 2026-04-29 01:50 | 9.97851 | -76.19687 | 30000 ft | 450 kts | 70° |
| 2026-04-29 01:51 | 9.99835 | -76.13744 | 29909 ft | 443 kts | 70° |
| 2026-04-29 01:51 | 10.00807 | -76.10833 | 29582 ft | 437 kts | 70° |
| 2026-04-29 01:51 | 10.01771 | -76.07943 | 29101 ft | 433 kts | 70° |
| 2026-04-29 01:52 | 10.02736 | -76.05050 | 28549 ft | 431 kts | 70° |
| 2026-04-29 01:52 | 10.03694 | -76.02177 | 28004 ft | 428 kts | 70° |
| 2026-04-29 01:52 | 10.04648 | -75.99316 | 27462 ft | 425 kts | 70° |
| 2026-04-29 01:52 | 10.05586 | -75.96501 | 26929 ft | 422 kts | 70° |
| 2026-04-29 01:53 | 10.06525 | -75.93679 | 26394 ft | 419 kts | 70° |
| 2026-04-29 01:53 | 10.07461 | -75.90868 | 25859 ft | 417 kts | 70° |
| 2026-04-29 01:53 | 10.08375 | -75.88123 | 25335 ft | 414 kts | 70° |
| 2026-04-29 01:53 | 10.09292 | -75.85369 | 24809 ft | 411 kts | 70° |
| 2026-04-29 01:54 | 10.10206 | -75.82620 | 24283 ft | 409 kts | 70° |
| 2026-04-29 01:54 | 10.11114 | -75.79905 | 23762 ft | 406 kts | 70° |
| 2026-04-29 01:54 | 10.12019 | -75.77193 | 23239 ft | 403 kts | 70° |
| 2026-04-29 01:54 | 10.12911 | -75.74509 | 22721 ft | 401 kts | 70° |
| 2026-04-29 01:55 | 10.13802 | -75.71828 | 22202 ft | 398 kts | 70° |
| 2026-04-29 01:55 | 10.14679 | -75.69183 | 21690 ft | 396 kts | 70° |
| 2026-04-29 01:55 | 10.15555 | -75.66543 | 21178 ft | 393 kts | 70° |
| 2026-04-29 01:55 | 10.16424 | -75.63919 | 20665 ft | 391 kts | 70° |
| 2026-04-29 01:56 | 10.17283 | -75.61327 | 20155 ft | 388 kts | 70° |
| 2026-04-29 01:56 | 10.18146 | -75.58722 | 19639 ft | 386 kts | 70° |
| 2026-04-29 01:56 | 10.18993 | -75.56168 | 19130 ft | 384 kts | 70° |
| 2026-04-29 01:56 | 10.19855 | -75.53583 | 18611 ft | 381 kts | 69° |
| 2026-04-29 01:57 | 10.21006 | -75.51187 | 18100 ft | 376 kts | 55° |
| 2026-04-29 01:57 | 10.22541 | -75.49054 | 17584 ft | 372 kts | 49° |
| 2026-04-29 01:57 | 10.24176 | -75.47030 | 17057 ft | 370 kts | 47° |
| 2026-04-29 01:57 | 10.25855 | -75.45075 | 16536 ft | 367 kts | 46° |
| 2026-04-29 01:58 | 10.27545 | -75.43150 | 16017 ft | 365 kts | 45° |
| 2026-04-29 01:58 | 10.29250 | -75.41220 | 15492 ft | 363 kts | 45° |
| 2026-04-29 01:58 | 10.30926 | -75.39329 | 14972 ft | 360 kts | 45° |
| 2026-04-29 01:58 | 10.32583 | -75.37463 | 14455 ft | 358 kts | 45° |
| 2026-04-29 01:59 | 10.34243 | -75.35596 | 13933 ft | 356 kts | 45° |
| 2026-04-29 01:59 | 10.35917 | -75.33715 | 13402 ft | 353 kts | 45° |
| 2026-04-29 01:59 | 10.37562 | -75.31868 | 12877 ft | 351 kts | 45° |
| 2026-04-29 01:59 | 10.39168 | -75.30064 | 12357 ft | 349 kts | 45° |
| 2026-04-29 02:00 | 10.40808 | -75.28222 | 11819 ft | 347 kts | 45° |
| 2026-04-29 02:00 | 10.42415 | -75.26418 | 11288 ft | 345 kts | 45° |
| 2026-04-29 02:00 | 10.44026 | -75.24610 | 10749 ft | 343 kts | 45° |
| 2026-04-29 02:00 | 10.45623 | -75.22823 | 10221 ft | 340 kts | 45° |
| 2026-04-29 02:01 | 10.47192 | -75.21066 | 9994 ft | 328 kts | 45° |
| 2026-04-29 02:01 | 10.48682 | -75.19395 | 10072 ft | 306 kts | 45° |
| 2026-04-29 02:01 | 10.50031 | -75.17882 | 10053 ft | 282 kts | 45° |
| 2026-04-29 02:01 | 10.51324 | -75.16431 | 9923 ft | 264 kts | 44° |
| 2026-04-29 02:02 | 10.52503 | -75.15109 | 9807 ft | 247 kts | 44° |
| 2026-04-29 02:02 | 10.53634 | -75.13843 | 9692 ft | 232 kts | 44° |
| 2026-04-29 02:02 | 10.54685 | -75.12664 | 9576 ft | 218 kts | 44° |
| 2026-04-29 02:02 | 10.55675 | -75.11553 | 9320 ft | 214 kts | 44° |
| 2026-04-29 02:03 | 10.56685 | -75.10420 | 8973 ft | 213 kts | 44° |
| 2026-04-29 02:03 | 10.57666 | -75.09318 | 8653 ft | 212 kts | 44° |
| 2026-04-29 02:03 | 10.58656 | -75.08204 | 8329 ft | 211 kts | 44° |
| 2026-04-29 02:03 | 10.59640 | -75.07099 | 8007 ft | 210 kts | 44° |
| 2026-04-29 02:04 | 10.60617 | -75.05999 | 7687 ft | 209 kts | 44° |
| 2026-04-29 02:04 | 10.61593 | -75.04901 | 7367 ft | 208 kts | 44° |
| 2026-04-29 02:04 | 10.62557 | -75.03816 | 7055 ft | 207 kts | 44° |
| 2026-04-29 02:04 | 10.63523 | -75.02729 | 6744 ft | 206 kts | 44° |
| 2026-04-29 02:05 | 10.64476 | -75.01657 | 6448 ft | 204 kts | 44° |
| 2026-04-29 02:05 | 10.65407 | -75.00609 | 6365 ft | 191 kts | 43° |
| 2026-04-29 02:05 | 10.66262 | -74.99646 | 6244 ft | 178 kts | 43° |
| 2026-04-29 02:05 | 10.67083 | -74.98723 | 5967 ft | 175 kts | 43° |
| 2026-04-29 02:06 | 10.67886 | -74.97818 | 5697 ft | 172 kts | 43° |
| 2026-04-29 02:06 | 10.68690 | -74.96913 | 5415 ft | 169 kts | 44° |
| 2026-04-29 02:06 | 10.69470 | -74.96035 | 5135 ft | 167 kts | 44° |
| 2026-04-29 02:06 | 10.70242 | -74.95166 | 4851 ft | 165 kts | 45° |
| 2026-04-29 02:07 | 10.71002 | -74.94311 | 4563 ft | 163 kts | 45° |
| 2026-04-29 02:07 | 10.71768 | -74.93449 | 4266 ft | 162 kts | 46° |
| 2026-04-29 02:07 | 10.72512 | -74.92611 | 4058 ft | 154 kts | 46° |
| 2026-04-29 02:07 | 10.73193 | -74.91844 | 3934 ft | 142 kts | 46° |
| 2026-04-29 02:08 | 10.73849 | -74.91105 | 3669 ft | 140 kts | 47° |
| 2026-04-29 02:08 | 10.74535 | -74.90399 | 3380 ft | 141 kts | 43° |
| 2026-04-29 02:08 | 10.75271 | -74.89747 | 3113 ft | 136 kts | 40° |
| 2026-04-29 02:08 | 10.75983 | -74.89155 | 2809 ft | 131 kts | 39° |
| 2026-04-29 02:09 | 10.76691 | -74.88566 | 2566 ft | 131 kts | 39° |
| 2026-04-29 02:09 | 10.77391 | -74.87974 | 2451 ft | 129 kts | 40° |
| 2026-04-29 02:09 | 10.78078 | -74.87391 | 2363 ft | 130 kts | 40° |
| 2026-04-29 02:09 | 10.78767 | -74.86794 | 2268 ft | 132 kts | 42° |
| 2026-04-29 02:10 | 10.79392 | -74.86113 | 2158 ft | 132 kts | 49° |
| 2026-04-29 02:10 | 10.80027 | -74.85439 | 2057 ft | 131 kts | 43° |
| 2026-04-29 02:10 | 10.80732 | -74.84843 | 1902 ft | 132 kts | 39° |
| 2026-04-29 02:10 | 10.81454 | -74.84253 | 1720 ft | 131 kts | 39° |
| 2026-04-29 02:11 | 10.82160 | -74.83673 | 1544 ft | 130 kts | 39° |
| 2026-04-29 02:11 | 10.82856 | -74.83099 | 1373 ft | 130 kts | 39° |
| 2026-04-29 02:11 | 10.83557 | -74.82520 | 1202 ft | 130 kts | 39° |
| 2026-04-29 02:11 | 10.84255 | -74.81944 | 1029 ft | 129 kts | 39° |
| 2026-04-29 02:12 | 10.84947 | -74.81372 | 859 ft | 129 kts | 39° |
| 2026-04-29 02:12 | 10.85647 | -74.80793 | 687 ft | 129 kts | 39° |
| 2026-04-29 02:12 | 10.86341 | -74.80220 | 516 ft | 128 kts | 39° |
| 2026-04-29 02:12 | 10.87035 | -74.79647 | 345 ft | 128 kts | 39° |
| 2026-04-29 02:13 | 10.87724 | -74.79077 | 177 ft | 128 kts | 39° |
| 2026-04-29 02:13 | 10.88391 | -74.78526 | 107 ft | 108 kts | 39° |
| 2026-04-29 02:13 | 10.88695 | -74.78275 | 106 ft | 9 kts | 39° |
| 2026-04-29 02:13 | 10.88722 | -74.78252 | 106 ft | 11 kts | 40° |
| 2026-04-29 02:14 | 10.88769 | -74.78212 | 106 ft | 12 kts | 40° |
| 2026-04-29 02:14 | 10.88834 | -74.78158 | 106 ft | 12 kts | 39° |
| 2026-04-29 02:14 | 10.88898 | -74.78105 | 106 ft | 11 kts | 39° |
| 2026-04-29 02:14 | 10.88957 | -74.78057 | 106 ft | 11 kts | 39° |
| 2026-04-29 02:15 | 10.89012 | -74.78005 | 106 ft | 10 kts | 54° |
| 2026-04-29 02:15 | 10.88995 | -74.77945 | 106 ft | 10 kts | 135° |
| 2026-04-29 02:15 | 10.88947 | -74.77895 | 106 ft | 10 kts | 131° |
| 2026-04-29 02:15 | 10.88904 | -74.77846 | 106 ft | 9 kts | 131° |
| 2026-04-29 02:16 | 10.88875 | -74.77800 | 106 ft | 8 kts | 98° |
| 2026-04-29 02:16 | 10.88879 | -74.77751 | 106 ft | 5 kts | 110° |
| 2026-04-29 02:16 | 10.88864 | -74.77725 | 106 ft | 4 kts | 126° |
| 2026-04-29 02:16 | 10.88847 | -74.77702 | 106 ft | 4 kts | 127° |
| 2026-04-29 02:17 | 10.88834 | -74.77684 | 106 ft | 0 kts | 128° |